Time;durP1;ratioP1;P1;durP2;ratioP2;P2;SDS_P1;SDS_P2;PMS_P1;PMS_P2;Temp;Humidity;BMP_temperature;BMP_pressure;BME280_temperature;BME280_humidity;BME280_pressure;Samples;Min_cycle;Max_cycle;Signal;HPM_P1;HPM_P2
2023/09/16 00:04:40;;;;;;;1999.90;999.90;;;;;;;13.27;100.00;101424.91;10329192;28;20050;-71
2023/09/16 00:09:42;;;;;;;1999.90;999.90;;;;;;;13.35;100.00;101427.97;10327765;28;20443;-70
2023/09/16 00:14:45;;;;;;;1999.90;999.90;;;;;;;13.50;100.00;101430.63;10328265;28;20517;-70
2023/09/16 00:19:47;;;;;;;1999.90;999.90;;;;;;;13.60;100.00;101423.88;10328741;28;20042;-70
2023/09/16 00:24:52;;;;;;;1999.90;999.90;;;;;;;13.57;100.00;101410.91;10328600;28;20050;-70
2023/09/16 00:29:54;;;;;;;1999.90;999.90;;;;;;;13.49;100.00;101416.63;10328345;28;20046;-70
2023/09/16 00:34:57;;;;;;;1999.90;999.90;;;;;;;13.51;100.00;101409.47;10327736;28;20479;-70
2023/09/16 00:39:59;;;;;;;1999.90;999.90;;;;;;;13.60;100.00;101416.00;10310391;28;20403;-72
2023/09/16 00:45:02;;;;;;;1999.90;999.90;;;;;;;13.55;100.00;101412.81;10327978;28;20084;-71
2023/09/16 00:50:05;;;;;;;1999.90;999.90;;;;;;;13.60;100.00;101410.75;10327203;28;20415;-70
2023/09/16 00:55:08;;;;;;;1999.90;999.90;;;;;;;13.74;100.00;101404.63;10327116;28;20055;-71
2023/09/16 01:00:11;;;;;;;1999.90;999.90;;;;;;;13.67;100.00;101401.53;10326911;28;20054;-71
2023/09/16 01:05:15;;;;;;;1999.90;999.90;;;;;;;13.52;100.00;101407.72;10326976;28;20402;-71
2023/09/16 01:10:18;;;;;;;1999.90;999.90;;;;;;;13.60;100.00;101412.50;10301243;23;20051;-65
2023/09/16 01:15:22;;;;;;;1999.90;999.90;;;;;;;13.55;100.00;101403.13;10286133;28;20090;-65
2023/09/16 01:20:25;;;;;;;1999.90;999.90;;;;;;;13.49;100.00;101406.09;10287132;28;20049;-66
2023/09/16 01:25:28;;;;;;;1999.90;999.90;;;;;;;13.51;100.00;101396.31;10292321;28;20109;-65
2023/09/16 01:30:35;;;;;;;1999.90;999.90;;;;;;;13.49;100.00;101403.47;10292597;28;20077;-65
2023/09/16 01:35:39;;;;;;;1999.90;999.90;;;;;;;13.42;100.00;101385.53;10276593;28;20055;-65
2023/09/16 01:40:44;;;;;;;1999.90;999.90;;;;;;;13.32;100.00;101388.69;10292911;28;20109;-66
2023/09/16 01:45:46;;;;;;;1999.90;999.90;;;;;;;13.26;100.00;101383.75;10293359;28;20055;-65
2023/09/16 01:50:49;;;;;;;1999.90;999.90;;;;;;;13.17;100.00;101381.69;10293139;28;20089;-66
2023/09/16 01:55:51;;;;;;;1999.90;999.90;;;;;;;13.09;100.00;101382.13;10291251;28;20050;-65
2023/09/16 02:00:54;;;;;;;1999.90;999.90;;;;;;;13.10;100.00;101388.25;10292295;28;20047;-66
2023/09/16 02:05:56;;;;;;;1999.90;999.90;;;;;;;13.09;100.00;101379.50;10292715;28;20051;-66
2023/09/16 02:10:59;;;;;;;1999.90;999.90;;;;;;;13.09;100.00;101374.25;10292007;28;20059;-65
2023/09/16 02:16:01;;;;;;;1999.90;999.90;;;;;;;13.19;100.00;101382.44;10292418;28;20053;-65
2023/09/16 02:21:04;;;;;;;1999.90;999.90;;;;;;;13.02;100.00;101386.06;10291157;28;20050;-65
2023/09/16 02:26:06;;;;;;;1999.90;999.90;;;;;;;13.14;100.00;101385.34;10292095;28;20050;-65
2023/09/16 02:31:09;;;;;;;1999.90;999.90;;;;;;;13.04;100.00;101389.44;10291226;28;20130;-65
2023/09/16 02:36:12;;;;;;;1999.90;999.90;;;;;;;12.92;100.00;101385.75;10290806;28;20096;-65
2023/09/16 02:41:17;;;;;;;1999.90;999.90;;;;;;;12.94;100.00;101383.88;10291631;28;20061;-65
2023/09/16 02:46:20;;;;;;;1999.90;999.90;;;;;;;12.90;100.00;101389.41;10290894;28;20119;-65
2023/09/16 02:51:22;;;;;;;1999.90;999.90;;;;;;;13.00;100.00;101382.69;10289488;28;20502;-65
2023/09/16 02:56:25;;;;;;;1999.90;999.90;;;;;;;12.89;100.00;101377.19;10290610;28;20082;-65
2023/09/16 03:01:27;;;;;;;1999.90;999.90;;;;;;;12.73;100.00;101379.88;10291015;28;20121;-65
2023/09/16 03:06:30;;;;;;;1999.90;999.90;;;;;;;12.73;100.00;101375.47;10289727;28;20134;-65
2023/09/16 03:11:32;;;;;;;1999.90;999.90;;;;;;;12.73;100.00;101370.19;10289882;28;20116;-65
2023/09/16 03:16:35;;;;;;;1999.90;999.90;;;;;;;12.69;100.00;101371.28;10290528;28;20059;-65
2023/09/16 03:21:38;;;;;;;1999.90;999.90;;;;;;;12.68;100.00;101369.63;10290424;28;20085;-65
2023/09/16 03:26:40;;;;;;;1999.90;999.90;;;;;;;12.67;100.00;101359.19;10288469;28;20063;-66
2023/09/16 03:31:43;;;;;;;1999.90;999.90;;;;;;;12.56;100.00;101349.31;10272956;28;20061;-66
2023/09/16 03:36:45;;;;;;;1999.90;999.90;;;;;;;12.59;100.00;101352.59;10289256;28;20080;-66
2023/09/16 03:41:47;;;;;;;1999.90;999.90;;;;;;;12.69;100.00;101355.53;10289060;28;20462;-66
2023/09/16 03:46:50;;;;;;;1999.90;999.90;;;;;;;12.74;100.00;101350.88;10287944;28;20077;-66
2023/09/16 03:51:53;;;;;;;1999.90;999.90;;;;;;;12.66;100.00;101341.72;10288794;28;20055;-66
2023/09/16 03:56:55;;;;;;;1999.90;999.90;;;;;;;12.61;100.00;101348.09;10288166;28;20046;-66
2023/09/16 04:01:58;;;;;;;1999.90;999.90;;;;;;;12.78;100.00;101343.66;10289117;28;20134;-66
2023/09/16 04:07:00;;;;;;;1999.90;999.90;;;;;;;12.67;100.00;101332.94;10288930;28;20089;-66
2023/09/16 04:12:03;;;;;;;1999.90;999.90;;;;;;;12.56;100.00;101338.81;10287967;28;20491;-66
2023/09/16 04:17:05;;;;;;;1999.90;999.90;;;;;;;12.65;100.00;101340.91;10288717;28;20130;-66
2023/09/16 04:22:07;;;;;;;1999.90;999.90;;;;;;;12.82;100.00;101347.81;10287431;28;20053;-66
2023/09/16 04:27:10;;;;;;;1999.90;999.90;;;;;;;12.73;100.00;101343.94;10287708;28;20507;-66
2023/09/16 04:32:12;;;;;;;1999.90;999.90;;;;;;;12.72;100.00;101347.47;10287144;28;20077;-66
2023/09/16 04:37:16;;;;;;;1999.90;999.90;;;;;;;12.66;100.00;101353.09;10288142;28;20057;-66
2023/09/16 04:42:18;;;;;;;1999.90;999.90;;;;;;;12.63;100.00;101348.03;10288035;28;20053;-66
2023/09/16 04:47:21;;;;;;;1999.90;999.90;;;;;;;12.74;100.00;101348.25;10287885;28;20051;-66
2023/09/16 04:52:27;;;;;;;1999.90;999.90;;;;;;;12.60;100.00;101342.94;10287801;28;20057;-66
2023/09/16 04:57:30;;;;;;;1999.90;999.90;;;;;;;12.59;100.00;101341.22;10290945;28;20047;-66
2023/09/16 05:02:33;;;;;;;1999.90;999.90;;;;;;;12.68;100.00;101338.09;10276908;28;20055;-66
2023/09/16 05:07:36;;;;;;;1999.90;999.90;;;;;;;12.67;100.00;101338.19;10294570;28;20126;-66
2023/09/16 05:12:38;;;;;;;1999.90;999.90;;;;;;;12.61;100.00;101344.66;10293720;28;20062;-66
2023/09/16 05:17:40;;;;;;;1999.90;999.90;;;;;;;12.64;100.00;101333.94;10276548;28;20156;-66
2023/09/16 05:22:47;;;;;;;1999.90;999.90;;;;;;;12.62;100.00;101327.94;10292368;28;20055;-66
2023/09/16 05:27:49;;;;;;;1999.90;999.90;;;;;;;12.62;100.00;101333.19;10292722;28;20057;-66
2023/09/16 05:32:52;;;;;;;1999.90;999.90;;;;;;;12.63;100.00;101327.00;10293172;28;20581;-66
2023/09/16 05:37:54;;;;;;;1999.90;999.90;;;;;;;12.63;100.00;101334.88;10293003;28;20050;-66
2023/09/16 05:42:57;;;;;;;1999.90;999.90;;;;;;;12.72;100.00;101344.00;10293489;28;20050;-66
2023/09/16 05:48:02;;;;;;;1999.90;999.90;;;;;;;12.76;100.00;101338.50;10292180;28;20104;-66
2023/09/16 05:53:05;;;;;;;1999.90;999.90;;;;;;;12.83;100.00;101350.34;10293196;28;20051;-66
2023/09/16 05:58:11;;;;;;;1999.90;999.90;;;;;;;12.96;100.00;101350.47;10292400;28;20047;-66
2023/09/16 06:03:14;;;;;;;1999.90;999.90;;;;;;;13.00;100.00;101351.97;10292873;28;20050;-66
2023/09/16 06:08:16;;;;;;;1999.90;999.90;;;;;;;13.19;100.00;101356.16;10291120;28;20480;-67
2023/09/16 06:13:18;;;;;;;1999.90;999.90;;;;;;;13.32;100.00;101354.50;10292011;28;20063;-66
2023/09/16 06:18:21;;;;;;;1999.90;999.90;;;;;;;13.57;100.00;101359.13;10291708;28;20051;-67
2023/09/16 06:23:25;;;;;;;1999.90;999.90;;;;;;;13.66;100.00;101360.34;10275117;28;20108;-67
2023/09/16 06:28:28;;;;;;;1999.90;999.90;;;;;;;13.85;100.00;101353.94;10291959;28;20043;-67
2023/09/16 06:33:30;;;;;;;1999.90;999.90;;;;;;;13.96;100.00;101354.13;10291948;28;20133;-67
2023/09/16 06:38:33;;;;;;;1999.90;999.90;;;;;;;14.08;100.00;101352.50;10291708;28;20126;-67
2023/09/16 06:43:35;;;;;;;1999.90;999.90;;;;;;;14.39;100.00;101350.53;10291597;28;20051;-67
2023/09/16 06:48:37;;;;;;;1999.90;999.90;;;;;;;14.38;100.00;101343.59;10291429;28;20049;-67
2023/09/16 06:53:40;;;;;;;1999.90;999.90;;;;;;;14.71;100.00;101342.34;10274216;28;20054;-66
2023/09/16 06:58:42;;;;;;;1999.90;999.90;;;;;;;14.85;100.00;101335.22;10290521;28;20082;-66
2023/09/16 07:04:02;;;;;;;1999.90;999.90;;;;;;;15.09;100.00;101329.25;10290540;28;20042;-65
2023/09/16 07:09:05;;;;;;;1999.90;999.90;;;;;;;15.31;100.00;101330.41;10289936;28;20495;-65
2023/09/16 07:14:07;;;;;;;1999.90;999.90;;;;;;;15.45;100.00;101332.94;10318117;28;20078;-66
2023/09/16 07:19:09;;;;;;;1999.90;999.90;;;;;;;15.65;100.00;101330.69;10329961;28;20486;-66
2023/09/16 07:24:12;;;;;;;1999.90;999.90;;;;;;;15.84;100.00;101336.41;10330456;28;20062;-66
2023/09/16 07:29:14;;;;;;;1999.90;999.90;;;;;;;16.33;100.00;101324.94;10329593;28;20501;-67
2023/09/16 07:34:19;;;;;;;1999.90;999.90;;;;;;;17.14;100.00;101318.97;10312337;28;20085;-64
2023/09/16 07:39:21;;;;;;;1999.90;999.90;;;;;;;17.98;100.00;101320.28;10312748;28;20513;-65
2023/09/16 07:44:24;;;;;;;1999.90;999.90;;;;;;;18.81;100.00;101319.75;10328613;28;20133;-65
2023/09/16 07:49:26;;;;;;;1999.90;999.90;;;;;;;19.23;100.00;101322.41;10322350;28;20137;-66
2023/09/16 07:54:28;;;;;;;1999.90;999.90;;;;;;;19.71;100.00;101320.97;10329611;28;20054;-65
2023/09/16 07:59:31;;;;;;;1999.90;999.90;;;;;;;19.75;100.00;101315.25;10328792;28;20085;-66
2023/09/16 08:04:34;;;;;;;;;;;;;;;20.01;100.00;101328.91;10328778;28;20081;-68
2023/09/16 08:09:37;;;;;;;;;;;;;;;20.28;96.87;101323.91;10327616;28;19928;-69
2023/09/16 08:14:39;;;;;;;1999.90;999.90;;;;;;;20.59;95.38;101327.25;10328586;28;20157;-69
2023/09/16 08:19:42;;;;;;;1999.90;999.90;;;;;;;21.09;96.61;101336.88;10328853;28;20078;-68
2023/09/16 08:24:44;;;;;;;1999.90;999.90;;;;;;;21.45;92.17;101331.72;10328680;28;20182;-69
2023/09/16 08:29:49;;;;;;;1999.90;999.90;;;;;;;21.71;88.40;101340.75;10328016;28;20046;-69
2023/09/16 08:34:51;;;;;;;1999.90;999.90;;;;;;;22.13;88.08;101334.06;10328415;28;20054;-69
2023/09/16 08:39:54;;;;;;;1999.90;999.90;;;;;;;22.81;84.82;101325.53;10328309;28;20149;-69
2023/09/16 08:44:58;;;;;;;1999.90;999.90;;;;;;;22.98;78.85;101333.66;10327606;28;20518;-69
2023/09/16 08:50:10;;;;;;;1999.90;999.90;;;;;;;22.63;79.08;101335.41;10310183;28;20137;-68
2023/09/16 08:55:14;;;;;;;1999.90;999.90;;;;;;;22.45;75.58;101327.41;10327282;28;20133;-68
2023/09/16 09:00:17;;;;;;;1999.90;999.90;;;;;;;23.55;76.08;101333.16;10310666;28;20047;-68
2023/09/16 09:05:23;;;;;;;1999.90;999.90;;;;;;;23.27;74.27;101321.88;10310473;28;20085;-68
2023/09/16 09:10:26;;;;;;;1999.90;999.90;;;;;;;24.15;72.35;101332.22;10309656;28;20050;-68
2023/09/16 09:15:29;;;;;;;1999.90;999.90;;;;;;;23.79;70.81;101335.13;10309676;28;20407;-69
2023/09/16 09:20:31;;;;;;;1999.90;999.90;;;;;;;23.89;73.07;101327.81;10327310;28;20131;-69
2023/09/16 09:25:36;;;;;;;1999.90;999.90;;;;;;;24.35;73.89;101329.25;10327198;28;20133;-67
2023/09/16 09:30:40;;;;;;;1999.90;999.90;;;;;;;24.20;73.18;101332.56;10326972;28;20084;-67
2023/09/16 09:35:43;;;;;;;1999.90;999.90;;;;;;;23.81;75.70;101327.75;10309795;28;20050;-67
2023/09/16 09:40:59;;;;;;;1999.90;999.90;;;;;;;24.70;70.45;101320.09;10309633;28;20049;-67
2023/09/16 09:46:02;;;;;;;1999.90;999.90;;;;;;;24.88;71.63;101325.28;10332445;28;20133;-67
2023/09/16 09:51:08;;;;;;;1999.90;999.90;;;;;;;25.90;67.09;101317.38;10300198;28;20096;-67
2023/09/16 09:56:12;;;;;;;1999.90;999.90;;;;;;;27.27;67.68;101326.53;10316268;28;20200;-67
2023/09/16 10:01:15;;;;;;;1999.90;999.90;;;;;;;27.45;64.96;101328.88;10315935;28;20053;-67
2023/09/16 10:06:20;;;;;;;1999.90;999.90;;;;;;;28.03;60.83;101329.81;10332984;28;20050;-67
2023/09/16 10:11:27;;;;;;;1999.90;999.90;;;;;;;28.37;60.68;101330.16;10332482;28;20042;-67
2023/09/16 10:16:30;;;;;;;1999.90;999.90;;;;;;;27.00;62.86;101332.38;10315631;28;20129;-67
2023/09/16 10:21:35;;;;;;;1999.90;999.90;;;;;;;27.39;60.27;101323.22;10331858;28;20483;-67
2023/09/16 10:26:38;;;;;;;1999.90;999.90;;;;;;;27.41;59.13;101331.09;10332355;28;20057;-67
2023/09/16 10:31:42;;;;;;;1999.90;999.90;;;;;;;28.68;57.12;101327.97;10314568;28;20141;-67
2023/09/16 10:36:45;;;;;;;1999.90;999.90;;;;;;;27.59;57.06;101330.72;10314750;28;20054;-67
2023/09/16 10:41:48;;;;;;;1999.90;999.90;;;;;;;28.11;56.37;101327.00;10331866;28;20046;-67
2023/09/16 10:46:51;;;;;;;1999.90;999.90;;;;;;;29.15;56.84;101325.59;10314542;28;20129;-68
2023/09/16 10:51:55;;;;;;;1999.90;999.90;;;;;;;27.21;56.80;101318.19;10313619;28;20073;-67
2023/09/16 10:57:02;;;;;;;1999.90;999.90;;;;;;;29.24;55.38;101320.91;10297179;28;20047;-68
2023/09/16 11:02:22;;;;;;;1999.90;999.90;;;;;;;27.67;53.45;101313.63;10330650;28;20548;-68
2023/09/16 11:07:25;;;;;;;1999.90;999.90;;;;;;;28.75;51.79;101309.16;10330502;28;20059;-68
2023/09/16 11:12:27;;;;;;;1999.90;999.90;;;;;;;28.97;53.34;101304.53;10312953;28;20065;-68
2023/09/16 11:17:30;;;;;;;1999.90;999.90;;;;;;;27.41;54.22;101305.03;10313609;28;20130;-67
2023/09/16 11:22:33;;;;;;;1999.90;999.90;;;;;;;29.22;51.26;101294.13;10312722;28;20046;-67
2023/09/16 11:27:35;;;;;;;1999.90;999.90;;;;;;;29.61;53.01;101300.72;10313426;28;20054;-68
2023/09/16 11:32:55;;;;;;;1999.90;999.90;;;;;;;30.34;50.90;101297.38;10329509;28;20477;-68
2023/09/16 11:37:57;;;;;;;1999.90;999.90;;;;;;;29.65;51.05;101293.88;10329401;28;20407;-68
2023/09/16 11:43:01;;;;;;;1999.90;999.90;;;;;;;29.64;53.88;101283.31;10312689;28;20081;-68
2023/09/16 11:48:03;;;;;;;1999.90;999.90;;;;;;;30.02;51.26;101288.19;10311881;28;20414;-68
2023/09/16 11:53:06;;;;;;;1999.90;999.90;;;;;;;29.81;52.37;101284.63;10328931;28;20487;-68
2023/09/16 11:58:08;;;;;;;1999.90;999.90;;;;;;;29.17;51.29;101279.56;10312126;28;20125;-68
2023/09/16 12:03:12;;;;;;;1999.90;999.90;;;;;;;29.80;52.70;101282.97;10312036;28;20111;-68
2023/09/16 12:08:14;;;;;;;1999.90;999.90;;;;;;;28.20;55.46;101278.44;10310430;28;20495;-68
2023/09/16 12:13:31;;;;;;;1999.90;999.90;;;;;;;28.13;52.85;101270.28;10311010;28;20467;-68
2023/09/16 12:18:33;;;;;;;1999.90;999.90;;;;;;;28.69;53.43;101267.66;10328867;28;20113;-68
2023/09/16 12:23:36;;;;;;;1999.90;999.90;;;;;;;28.60;55.56;101262.63;10311543;28;20125;-68
2023/09/16 12:28:39;;;;;;;1999.90;999.90;;;;;;;28.47;55.46;101263.31;10310761;28;20149;-67
2023/09/16 12:33:48;;;;;;;1999.90;999.90;;;;;;;27.88;54.89;101259.88;10311425;28;20133;-67
2023/09/16 12:38:53;;;;;;;1999.90;999.90;;;;;;;28.65;55.49;101262.88;10310964;28;20069;-68
2023/09/16 12:43:57;;;;;;;1999.90;999.90;;;;;;;27.43;55.66;101265.34;10310593;28;20459;-67
2023/09/16 12:49:00;;;;;;;1999.90;999.90;;;;;;;27.78;55.19;101251.28;10310180;28;20480;-68
2023/09/16 12:54:02;;;;;;;1999.90;999.90;;;;;;;28.38;54.41;101251.00;10327922;28;20054;-68
2023/09/16 12:59:05;;;;;;;1999.90;999.90;;;;;;;27.22;56.08;101249.97;10327224;28;20081;-67
2023/09/16 13:04:08;;;;;;;1999.90;999.90;;;;;;;26.80;56.94;101251.47;10327799;28;20050;-68
2023/09/16 13:09:12;;;;;;;1999.90;999.90;;;;;;;27.21;58.37;101258.22;10327097;28;20058;-68
2023/09/16 13:14:14;;;;;;;1999.90;999.90;;;;;;;26.84;59.14;101251.94;10294180;28;20495;-68
2023/09/16 13:19:20;;;;;;;1999.90;999.90;;;;;;;26.00;60.98;101258.16;10331634;28;20089;-67
2023/09/16 13:24:23;;;;;;;1999.90;999.90;;;;;;;26.01;60.70;101256.31;10359080;22;20147;-69
2023/09/16 13:29:31;;;;;;;1999.90;999.90;;;;;;;25.56;62.73;101250.72;10486833;28;20400;-69
2023/09/16 13:34:44;;;;;;;1999.90;999.90;;;;;;;26.56;60.61;101244.44;10504386;28;20079;-69
2023/09/16 13:39:47;;;;;;;1999.90;999.90;;;;;;;26.68;59.03;101239.53;10504357;28;20078;-70
2023/09/16 13:44:50;;;;;;;1999.90;999.90;;;;;;;26.88;58.80;101243.31;10504538;28;20134;-73
2023/09/16 13:49:52;;;;;;;1999.90;999.90;;;;;;;28.46;56.96;101235.56;10504316;28;20132;-73
2023/09/16 13:54:54;;;;;;;1999.90;999.90;;;;;;;27.00;56.64;101251.75;10503530;28;20070;-72
2023/09/16 13:59:57;;;;;;;1999.90;999.90;;;;;;;27.33;58.87;101251.38;10503957;28;20045;-72
2023/09/16 14:04:59;;;;;;;1999.90;999.90;;;;;;;26.65;58.61;101243.41;10486062;28;20072;-72
2023/09/16 14:10:01;;;;;;;1999.90;999.90;;;;;;;26.72;56.16;101239.97;10485191;28;20128;-72
2023/09/16 14:15:05;;;;;;;1999.90;999.90;;;;;;;26.74;58.72;101238.75;10503471;28;20053;-73
2023/09/16 14:20:07;;;;;;;1999.90;999.90;;;;;;;27.10;57.64;101240.72;10502685;28;20075;-73
2023/09/16 14:25:10;;;;;;;1999.90;999.90;;;;;;;27.37;56.31;101241.06;10502655;28;20080;-73
2023/09/16 14:30:13;;;;;;;1999.90;999.90;;;;;;;26.97;59.58;101240.56;10483694;28;20044;-72
2023/09/16 14:35:16;;;;;;;1999.90;999.90;;;;;;;27.08;60.27;101236.56;10484975;28;20110;-72
2023/09/16 14:40:20;;;;;;;1999.90;999.90;;;;;;;27.73;59.73;101235.69;10502497;28;20071;-72
2023/09/16 14:45:22;;;;;;;1999.90;999.90;;;;;;;27.20;59.83;101229.66;10502079;28;20055;-73
2023/09/16 15:51:28;;;;;;;1999.90;999.90;;;;;;;23.97;94.49;101248.63;10533969;28;20381;-70
2023/09/16 15:56:30;;;;;;;1999.90;999.90;;;;;;;24.07;96.49;101247.47;10534108;28;20067;-70
2023/09/16 16:01:33;;;;;;;1999.90;999.90;;;;;;;23.86;95.53;101247.09;10533941;28;20132;-71
2023/09/16 16:06:35;;;;;;;1999.90;999.90;;;;;;;23.41;99.76;101261.66;10533605;28;20059;-71
2023/09/16 16:11:39;;;;;;;1999.90;999.90;;;;;;;23.44;100.00;101251.47;10532865;28;20540;-71
2023/09/16 16:16:41;;;;;;;1999.90;999.90;;;;;;;23.33;100.00;101254.41;10533289;28;20127;-71
2023/09/16 16:21:44;;;;;;;1999.90;999.90;;;;;;;22.93;100.00;101263.88;10533145;28;20054;-72
2023/09/16 16:26:46;;;;;;;1999.90;999.90;;;;;;;23.09;100.00;101260.50;10532346;28;20135;-72
2023/09/16 16:31:48;;;;;;;1999.90;999.90;;;;;;;22.67;100.00;101262.03;10532205;28;20550;-72
2023/09/16 16:36:51;;;;;;;1999.90;999.90;;;;;;;22.43;100.00;101265.38;10514502;28;20101;-72
2023/09/16 16:41:54;;;;;;;1999.90;999.90;;;;;;;22.28;100.00;101257.06;10532389;28;20057;-71
2023/09/16 16:46:56;;;;;;;1999.90;999.90;;;;;;;22.13;100.00;101263.91;10531970;28;20118;-71
2023/09/16 16:52:03;;;;;;;1999.90;999.90;;;;;;;22.09;100.00;101266.06;10488986;28;20052;-71
2023/09/16 16:57:05;;;;;;;1999.90;999.90;;;;;;;21.76;100.00;101271.03;10503208;28;20566;-72
2023/09/16 17:02:07;;;;;;;1999.90;999.90;;;;;;;21.78;100.00;101269.03;10503080;28;20079;-72
2023/09/16 17:07:10;;;;;;;1999.90;999.90;;;;;;;21.39;100.00;101266.56;10503036;28;20496;-72
2023/09/16 17:12:13;;;;;;;1999.90;999.90;;;;;;;21.43;100.00;101277.75;10503346;28;20045;-72
2023/09/16 17:17:16;;;;;;;1999.90;999.90;;;;;;;21.37;100.00;101275.69;10484734;28;20568;-72
2023/09/16 17:22:18;;;;;;;1999.90;999.90;;;;;;;21.14;100.00;101274.22;10502492;28;20447;-72
2023/09/16 17:27:20;;;;;;;1999.90;999.90;;;;;;;20.94;100.00;101281.44;10502685;28;20124;-72
2023/09/16 17:32:23;;;;;;;1999.90;999.90;;;;;;;20.89;100.00;101282.88;10502581;28;20102;-72
2023/09/16 17:37:25;;;;;;;1999.90;999.90;;;;;;;20.78;100.00;101279.38;10501632;28;20044;-72
2023/09/16 17:42:28;;;;;;;1999.90;999.90;;;;;;;20.78;100.00;101286.53;10502142;28;20049;-72
2023/09/16 17:47:30;;;;;;;1999.90;999.90;;;;;;;20.55;100.00;101297.44;10501319;28;20063;-72
2023/09/16 17:52:33;;;;;;;1999.90;999.90;;;;;;;20.46;100.00;101311.59;10501749;28;20060;-72
2023/09/16 17:57:35;;;;;;;1999.90;999.90;;;;;;;20.68;100.00;101318.47;10483258;28;20059;-72
2023/09/16 18:02:38;;;;;;;1999.90;999.90;;;;;;;20.60;100.00;101315.66;10482717;28;20045;-72
2023/09/16 18:07:40;;;;;;;1999.90;999.90;;;;;;;20.39;100.00;101324.63;10501100;28;20124;-72
2023/09/16 18:12:43;;;;;;;1999.90;999.90;;;;;;;20.42;100.00;101318.16;10500839;28;20049;-71
2023/09/16 18:17:45;;;;;;;1999.90;999.90;;;;;;;20.35;100.00;101320.53;10500570;28;20060;-71
2023/09/16 18:22:48;;;;;;;1999.90;999.90;;;;;;;20.45;100.00;101333.84;10499773;28;20080;-71
2023/09/16 18:27:51;;;;;;;1999.90;999.90;;;;;;;20.45;100.00;101322.38;10482523;28;20127;-71
2023/09/16 18:32:53;;;;;;;1999.90;999.90;;;;;;;20.38;100.00;101335.38;10500061;28;20102;-71
2023/09/16 18:37:55;;;;;;;1999.90;999.90;;;;;;;20.23;100.00;101358.88;10499712;28;20492;-72
2023/09/16 18:43:18;;;;;;;1999.90;999.90;;;;;;;20.24;100.00;101360.56;10499675;28;20053;-72
2023/09/16 18:48:20;;;;;;;1999.90;999.90;;;;;;;20.31;100.00;101360.81;10498623;28;20477;-72
2023/09/16 18:53:23;;;;;;;1999.90;999.90;;;;;;;20.24;100.00;101363.22;10480957;28;20431;-72
2023/09/16 18:58:25;;;;;;;1999.90;999.90;;;;;;;20.18;100.00;101371.75;10498436;28;20131;-72
2023/09/16 19:03:28;;;;;;;1999.90;999.90;;;;;;;20.15;100.00;101375.50;10497840;28;20052;-72
2023/09/16 19:08:31;;;;;;;1999.90;999.90;;;;;;;20.05;100.00;101377.28;10480678;28;20454;-72
2023/09/16 19:13:33;;;;;;;1999.90;999.90;;;;;;;19.99;100.00;101384.00;10498535;28;20127;-72
2023/09/16 19:18:36;;;;;;;1999.90;999.90;;;;;;;19.97;100.00;101388.63;10498792;28;20045;-72
2023/09/16 19:23:40;;;;;;;1999.90;999.90;;;;;;;20.01;100.00;101386.53;10480725;28;20128;-72
2023/09/16 19:28:42;;;;;;;1999.90;999.90;;;;;;;19.99;100.00;101380.50;10497814;28;20048;-71
2023/09/16 19:33:44;;;;;;;1999.90;999.90;;;;;;;19.90;100.00;101392.78;10498174;28;20044;-71
2023/09/16 19:38:47;;;;;;;1999.90;999.90;;;;;;;19.73;100.00;101380.94;10497491;28;20055;-71
2023/09/16 19:43:49;;;;;;;1999.90;999.90;;;;;;;19.80;100.00;101379.47;10498124;28;20094;-72
2023/09/16 19:48:52;;;;;;;1999.90;999.90;;;;;;;19.98;100.00;101374.34;10497535;28;20052;-72
2023/09/16 19:53:54;;;;;;;1999.90;999.90;;;;;;;19.86;100.00;101372.78;10497908;28;20131;-72
2023/09/16 19:58:57;;;;;;;1999.90;999.90;;;;;;;19.76;100.00;101385.19;10497278;28;20524;-72
2023/09/16 20:03:59;;;;;;;1999.90;999.90;;;;;;;19.85;100.00;101377.25;10497645;28;20048;-72
2023/09/16 20:09:02;;;;;;;1999.90;999.90;;;;;;;19.70;100.00;101385.66;10497108;28;20041;-72
2023/09/16 20:14:04;;;;;;;1999.90;999.90;;;;;;;19.60;100.00;101398.91;10497487;28;20051;-72
2023/09/16 20:19:07;;;;;;;1999.90;999.90;;;;;;;19.62;100.00;101392.50;10479580;28;20044;-72
2023/09/16 20:24:09;;;;;;;1999.90;999.90;;;;;;;19.64;100.00;101393.19;10498657;28;20052;-72
2023/09/16 20:29:11;;;;;;;1999.90;999.90;;;;;;;19.58;100.00;101387.56;10504316;28;20139;-72
2023/09/16 20:34:14;;;;;;;1999.90;999.90;;;;;;;19.29;100.00;101390.91;10487063;28;20056;-72
2023/09/16 20:39:18;;;;;;;1999.90;999.90;;;;;;;19.26;100.00;101384.03;10503794;28;20478;-72
2023/09/16 20:44:20;;;;;;;1999.90;999.90;;;;;;;19.10;100.00;101368.59;10486652;28;20052;-72
2023/09/16 20:49:22;;;;;;;1999.90;999.90;;;;;;;19.17;100.00;101371.56;10503740;28;20449;-71
2023/09/16 20:54:25;;;;;;;1999.90;999.90;;;;;;;19.10;100.00;101370.41;10503934;28;20056;-71
2023/09/16 20:59:27;;;;;;;1999.90;999.90;;;;;;;19.10;100.00;101370.41;10486047;28;20124;-71
2023/09/16 21:04:30;;;;;;;1999.90;999.90;;;;;;;18.92;100.00;101375.44;10502958;28;20551;-71
2023/09/16 21:09:33;;;;;;;1999.90;999.90;;;;;;;19.04;100.00;101370.91;10502849;28;20572;-71
2023/09/16 21:14:35;;;;;;;1999.90;999.90;;;;;;;18.84;100.00;101367.28;10503287;28;20127;-70
2023/09/16 21:19:37;;;;;;;1999.90;999.90;;;;;;;18.75;100.00;101372.34;10503052;28;20051;-71
2023/09/16 21:24:40;;;;;;;1999.90;999.90;;;;;;;18.92;100.00;101378.94;10502266;28;20048;-71
2023/09/16 21:29:42;;;;;;;1999.90;999.90;;;;;;;18.66;100.00;101377.56;10502743;28;20123;-71
2023/09/16 21:34:45;;;;;;;1999.90;999.90;;;;;;;18.63;100.00;101383.97;10501739;28;20092;-71
2023/09/16 21:39:47;;;;;;;1999.90;999.90;;;;;;;18.67;100.00;101387.22;10501588;28;20170;-71
2023/09/16 21:44:50;;;;;;;1999.90;999.90;;;;;;;18.58;100.00;101394.13;10483735;28;20092;-71
2023/09/16 21:49:52;;;;;;;1999.90;999.90;;;;;;;18.42;100.00;101394.53;10501261;28;20128;-71
2023/09/16 21:54:55;;;;;;;1999.90;999.90;;;;;;;18.51;100.00;101406.22;10483928;28;20084;-70
2023/09/16 21:59:57;;;;;;;1999.90;999.90;;;;;;;18.34;100.00;101404.91;10500901;28;20076;-69
2023/09/16 22:05:00;;;;;;;1999.90;999.90;;;;;;;18.43;100.00;101408.66;10500594;28;20554;-69
2023/09/16 22:10:02;;;;;;;1999.90;999.90;;;;;;;18.25;100.00;101401.19;10500422;28;20477;-69
2023/09/16 22:15:05;;;;;;;1999.90;999.90;;;;;;;18.24;100.00;101398.66;10500814;28;20054;-69
2023/09/16 22:20:08;;;;;;;1999.90;999.90;;;;;;;18.34;100.00;101386.34;10500729;28;20128;-69
2023/09/16 22:25:13;;;;;;;1999.90;999.90;;;;;;;18.13;100.00;101386.28;10482923;28;20056;-69
2023/09/16 22:30:19;;;;;;;1999.90;999.90;;;;;;;18.17;100.00;101372.69;10499555;28;20053;-69
2023/09/16 22:35:21;;;;;;;1999.90;999.90;;;;;;;17.97;100.00;101368.97;10482374;28;20049;-69
2023/09/16 22:40:24;;;;;;;1999.90;999.90;;;;;;;18.06;100.00;101370.03;10499746;28;20133;-69
2023/09/16 22:45:26;;;;;;;1999.90;999.90;;;;;;;17.81;100.00;101363.16;10499049;28;20127;-69
2023/09/16 22:50:28;;;;;;;1999.90;999.90;;;;;;;17.99;100.00;101368.84;10498156;28;20086;-69